sensor_id;sensor_type;location;lat;lon;timestamp;pressure;altitude;pressure_sealevel;temperature;humidity
75629;BME280;64213;46.452;16.994;2023-05-18T00:01:34;100161.41;;;9.71;84.41
75629;BME280;64213;46.452;16.994;2023-05-18T00:04:37;100169.97;;;9.74;84.34
75629;BME280;64213;46.452;16.994;2023-05-18T00:07:39;100175.34;;;9.73;84.46
75629;BME280;64213;46.452;16.994;2023-05-18T00:10:41;100161.09;;;9.75;83.89
75629;BME280;64213;46.452;16.994;2023-05-18T00:13:44;100164.59;;;9.76;83.69
75629;BME280;64213;46.452;16.994;2023-05-18T00:16:46;100164.59;;;9.76;83.77
75629;BME280;64213;46.452;16.994;2023-05-18T00:19:48;100166.41;;;9.75;83.56
75629;BME280;64213;46.452;16.994;2023-05-18T00:22:51;100161.94;;;9.76;83.31
75629;BME280;64213;46.452;16.994;2023-05-18T00:25:54;100162.06;;;9.74;83.41
75629;BME280;64213;46.452;16.994;2023-05-18T00:28:56;100165.53;;;9.75;83.54
75629;BME280;64213;46.452;16.994;2023-05-18T00:32:16;100171.00;;;9.72;83.66
75629;BME280;64213;46.452;16.994;2023-05-18T00:35:18;100158.66;;;9.72;83.31
75629;BME280;64213;46.452;16.994;2023-05-18T00:38:20;100165.72;;;9.72;83.28
75629;BME280;64213;46.452;16.994;2023-05-18T00:41:22;100149.03;;;9.71;83.43
75629;BME280;64213;46.452;16.994;2023-05-18T00:44:25;100161.41;;;9.71;83.28
75629;BME280;64213;46.452;16.994;2023-05-18T00:47:27;100167.53;;;9.71;83.08
75629;BME280;64213;46.452;16.994;2023-05-18T00:50:30;100163.19;;;9.70;83.07
75629;BME280;64213;46.452;16.994;2023-05-18T00:53:32;100162.31;;;9.70;83.03
75629;BME280;64213;46.452;16.994;2023-05-18T00:56:36;100167.59;;;9.70;82.74
75629;BME280;64213;46.452;16.994;2023-05-18T00:59:42;100164.09;;;9.69;82.48
75629;BME280;64213;46.452;16.994;2023-05-18T01:02:44;100161.56;;;9.68;82.63
75629;BME280;64213;46.452;16.994;2023-05-18T01:05:47;100156.38;;;9.66;82.60
75629;BME280;64213;46.452;16.994;2023-05-18T01:08:56;100153.81;;;9.65;82.57
75629;BME280;64213;46.452;16.994;2023-05-18T01:15:15;100157.91;;;9.70;81.99
75629;BME280;64213;46.452;16.994;2023-05-18T01:18:24;100162.31;;;9.70;82.07
75629;BME280;64213;46.452;16.994;2023-05-18T01:28:33;100173.66;;;9.72;82.07
75629;BME280;64213;46.452;16.994;2023-05-18T01:31:35;100164.88;;;9.71;82.17
75629;BME280;64213;46.452;16.994;2023-05-18T01:34:37;100168.47;;;9.70;82.17
75629;BME280;64213;46.452;16.994;2023-05-18T01:37:39;100172.69;;;9.73;81.95
75629;BME280;64213;46.452;16.994;2023-05-18T01:44:27;100163.19;;;9.70;81.80
75629;BME280;64213;46.452;16.994;2023-05-18T01:47:31;100162.25;;;9.71;81.60
75629;BME280;64213;46.452;16.994;2023-05-18T01:50:35;100172.81;;;9.71;81.86
75629;BME280;64213;46.452;16.994;2023-05-18T01:53:44;100165.72;;;9.72;81.84
75629;BME280;64213;46.452;16.994;2023-05-18T01:56:48;100159.59;;;9.71;81.75
75629;BME280;64213;46.452;16.994;2023-05-18T01:59:52;100158.75;;;9.71;81.72
75629;BME280;64213;46.452;16.994;2023-05-18T02:02:56;100163.09;;;9.72;81.62
75629;BME280;64213;46.452;16.994;2023-05-18T02:05:58;100158.81;;;9.69;81.79
75629;BME280;64213;46.452;16.994;2023-05-18T02:09:00;100157.03;;;9.70;81.83
75629;BME280;64213;46.452;16.994;2023-05-18T02:12:02;100154.50;;;9.68;81.93
75629;BME280;64213;46.452;16.994;2023-05-18T02:15:05;100162.53;;;9.67;81.72
75629;BME280;64213;46.452;16.994;2023-05-18T02:18:08;100148.53;;;9.65;81.78
75629;BME280;64213;46.452;16.994;2023-05-18T02:21:10;100150.34;;;9.64;81.87
75629;BME280;64213;46.452;16.994;2023-05-18T02:24:14;100150.22;;;9.66;81.62
75629;BME280;64213;46.452;16.994;2023-05-18T02:27:16;100150.34;;;9.64;81.86
75629;BME280;64213;46.452;16.994;2023-05-18T02:30:18;100150.41;;;9.63;81.81
75629;BME280;64213;46.452;16.994;2023-05-18T02:33:20;100150.41;;;9.63;81.86
75629;BME280;64213;46.452;16.994;2023-05-18T02:36:27;100143.44;;;9.62;81.78
75629;BME280;64213;46.452;16.994;2023-05-18T02:39:38;100160.97;;;9.63;81.67
75629;BME280;64213;46.452;16.994;2023-05-18T02:42:40;100154.00;;;9.62;81.81
75629;BME280;64213;46.452;16.994;2023-05-18T02:45:42;100165.41;;;9.62;81.80
75629;BME280;64213;46.452;16.994;2023-05-18T02:48:44;100163.72;;;9.61;81.64
75629;BME280;64213;46.452;16.994;2023-05-18T02:51:46;100161.94;;;9.62;81.75
75629;BME280;64213;46.452;16.994;2023-05-18T02:54:48;100166.25;;;9.63;81.77
75629;BME280;64213;46.452;16.994;2023-05-18T02:57:50;100162.00;;;9.60;81.76
75629;BME280;64213;46.452;16.994;2023-05-18T03:00:57;100154.19;;;9.59;81.77
75629;BME280;64213;46.452;16.994;2023-05-18T03:04:01;100164.62;;;9.60;81.63
75629;BME280;64213;46.452;16.994;2023-05-18T03:07:03;100164.75;;;9.59;81.80
75629;BME280;64213;46.452;16.994;2023-05-18T03:10:08;100176.25;;;9.58;81.85
75629;BME280;64213;46.452;16.994;2023-05-18T03:13:10;100167.38;;;9.59;81.75
75629;BME280;64213;46.452;16.994;2023-05-18T03:16:12;100169.19;;;9.58;81.71
75629;BME280;64213;46.452;16.994;2023-05-18T03:19:14;100172.75;;;9.57;81.66
75629;BME280;64213;46.452;16.994;2023-05-18T03:22:16;100178.12;;;9.55;81.60
75629;BME280;64213;46.452;16.994;2023-05-18T03:25:18;100182.63;;;9.53;81.80
75629;BME280;64213;46.452;16.994;2023-05-18T03:28:21;100189.63;;;9.54;82.05
75629;BME280;64213;46.452;16.994;2023-05-18T03:31:23;100186.31;;;9.51;82.22
75629;BME280;64213;46.452;16.994;2023-05-18T03:34:26;100191.28;;;9.41;82.80
75629;BME280;64213;46.452;16.994;2023-05-18T03:37:28;100188.88;;;9.37;83.76
75629;BME280;64213;46.452;16.994;2023-05-18T03:40:30;100197.75;;;9.36;84.29
75629;BME280;64213;46.452;16.994;2023-05-18T03:43:32;100189.00;;;9.35;83.84
75629;BME280;64213;46.452;16.994;2023-05-18T03:46:34;100193.37;;;9.35;83.60
75629;BME280;64213;46.452;16.994;2023-05-18T03:49:36;100189.16;;;9.32;83.65
75629;BME280;64213;46.452;16.994;2023-05-18T03:52:38;100198.78;;;9.33;83.56
75629;BME280;64213;46.452;16.994;2023-05-18T03:55:40;100202.19;;;9.35;83.65
75629;BME280;64213;46.452;16.994;2023-05-18T03:58:42;100197.66;;;9.37;83.01
75629;BME280;64213;46.452;16.994;2023-05-18T04:01:45;100206.25;;;9.41;82.47
75629;BME280;64213;46.452;16.994;2023-05-18T04:04:47;100207.13;;;9.41;82.45
75629;BME280;64213;46.452;16.994;2023-05-18T04:07:49;100196.63;;;9.40;82.42
75629;BME280;64213;46.452;16.994;2023-05-18T04:10:51;100207.78;;;9.45;82.12
75629;BME280;64213;46.452;16.994;2023-05-18T04:13:53;100210.44;;;9.45;82.20
75629;BME280;64213;46.452;16.994;2023-05-18T04:16:55;100207.69;;;9.46;82.15
75629;BME280;64213;46.452;16.994;2023-05-18T04:19:59;100210.25;;;9.48;81.86
75629;BME280;64213;46.452;16.994;2023-05-18T04:23:02;100207.53;;;9.49;81.85
75629;BME280;64213;46.452;16.994;2023-05-18T04:26:06;100212.63;;;9.52;81.49
75629;BME280;64213;46.452;16.994;2023-05-18T04:29:08;100211.78;;;9.52;81.32
75629;BME280;64213;46.452;16.994;2023-05-18T04:32:11;100216.97;;;9.53;81.39
75629;BME280;64213;46.452;16.994;2023-05-18T04:35:13;100225.66;;;9.55;81.46
75629;BME280;64213;46.452;16.994;2023-05-18T04:38:16;100224.88;;;9.53;81.54
75629;BME280;64213;46.452;16.994;2023-05-18T04:41:18;100233.59;;;9.55;81.38
75629;BME280;64213;46.452;16.994;2023-05-18T04:44:24;100226.59;;;9.54;81.30
75629;BME280;64213;46.452;16.994;2023-05-18T04:47:29;100221.41;;;9.53;81.33
75629;BME280;64213;46.452;16.994;2023-05-18T04:50:31;100227.34;;;9.57;81.36
75629;BME280;64213;46.452;16.994;2023-05-18T04:53:33;100230.00;;;9.57;81.44
75629;BME280;64213;46.452;16.994;2023-05-18T04:56:35;100237.91;;;9.57;81.46
75629;BME280;64213;46.452;16.994;2023-05-18T04:59:37;100230.94;;;9.55;81.60
75629;BME280;64213;46.452;16.994;2023-05-18T05:02:39;100243.19;;;9.57;81.54
75629;BME280;64213;46.452;16.994;2023-05-18T05:05:41;100240.37;;;9.60;81.44
75629;BME280;64213;46.452;16.994;2023-05-18T05:08:43;100242.84;;;9.63;81.59
75629;BME280;64213;46.452;16.994;2023-05-18T05:11:46;100242.84;;;9.63;81.72
75629;BME280;64213;46.452;16.994;2023-05-18T05:14:48;100245.41;;;9.64;81.46
75629;BME280;64213;46.452;16.994;2023-05-18T05:17:50;100255.13;;;9.64;81.51
75629;BME280;64213;46.452;16.994;2023-05-18T05:20:53;100251.44;;;9.66;81.45
75629;BME280;64213;46.452;16.994;2023-05-18T05:23:55;100254.09;;;9.66;81.59
75629;BME280;64213;46.452;16.994;2023-05-18T05:26:57;100254.03;;;9.68;81.57
75629;BME280;64213;46.452;16.994;2023-05-18T05:29:59;100259.81;;;9.74;81.33
75629;BME280;64213;46.452;16.994;2023-05-18T05:33:01;100254.59;;;9.73;81.49
75629;BME280;64213;46.452;16.994;2023-05-18T05:36:03;100260.81;;;9.72;83.19
75629;BME280;64213;46.452;16.994;2023-05-18T05:39:06;100261.94;;;9.68;83.51
75629;BME280;64213;46.452;16.994;2023-05-18T05:42:08;100263.56;;;9.54;84.43
75629;BME280;64213;46.452;16.994;2023-05-18T05:45:11;100262.72;;;9.54;85.12
75629;BME280;64213;46.452;16.994;2023-05-18T05:48:13;100270.72;;;9.52;85.31
75629;BME280;64213;46.452;16.994;2023-05-18T05:51:15;100276.34;;;9.46;86.20
75629;BME280;64213;46.452;16.994;2023-05-18T05:54:17;100270.81;;;9.35;86.79
75629;BME280;64213;46.452;16.994;2023-05-18T05:57:19;100280.00;;;9.28;87.79
75629;BME280;64213;46.452;16.994;2023-05-18T06:00:21;100276.59;;;9.26;88.21
75629;BME280;64213;46.452;16.994;2023-05-18T06:03:24;100275.66;;;9.27;89.04
75629;BME280;64213;46.452;16.994;2023-05-18T06:06:27;100278.81;;;9.34;88.36
75629;BME280;64213;46.452;16.994;2023-05-18T06:09:29;100281.97;;;9.40;88.10
75629;BME280;64213;46.452;16.994;2023-05-18T06:12:31;100279.84;;;9.47;87.83
75629;BME280;64213;46.452;16.994;2023-05-18T06:15:33;100285.63;;;9.53;87.60
75629;BME280;64213;46.452;16.994;2023-05-18T06:18:35;100283.59;;;9.59;87.04
75629;BME280;64213;46.452;16.994;2023-05-18T06:21:38;100276.00;;;9.68;86.19
75629;BME280;64213;46.452;16.994;2023-05-18T06:24:40;100281.00;;;9.73;85.95
75629;BME280;64213;46.452;16.994;2023-05-18T06:27:42;100286.44;;;9.86;86.26
75629;BME280;64213;46.452;16.994;2023-05-18T06:30:45;100283.72;;;9.87;85.77
75629;BME280;64213;46.452;16.994;2023-05-18T06:33:47;100292.16;;;9.94;85.35
75629;BME280;64213;46.452;16.994;2023-05-18T06:36:49;100291.97;;;9.97;85.23
75629;BME280;64213;46.452;16.994;2023-05-18T06:39:51;100286.84;;;10.10;84.44
75629;BME280;64213;46.452;16.994;2023-05-18T06:42:53;100291.69;;;10.01;84.01
75629;BME280;64213;46.452;16.994;2023-05-18T06:45:55;100283.16;;;10.12;83.73
75629;BME280;64213;46.452;16.994;2023-05-18T06:48:57;100289.62;;;10.22;83.36
75629;BME280;64213;46.452;16.994;2023-05-18T06:51:59;100292.50;;;10.34;82.91
75629;BME280;64213;46.452;16.994;2023-05-18T06:55:01;100295.00;;;10.51;82.95
75629;BME280;64213;46.452;16.994;2023-05-18T06:58:04;100273.12;;;10.33;83.83
75629;BME280;64213;46.452;16.994;2023-05-18T07:01:06;100298.84;;;10.45;83.77
75629;BME280;64213;46.452;16.994;2023-05-18T07:04:08;100304.38;;;10.27;84.40
75629;BME280;64213;46.452;16.994;2023-05-18T07:07:10;100300.72;;;10.29;84.90
75629;BME280;64213;46.452;16.994;2023-05-18T07:10:12;100299.69;;;10.32;84.75
75629;BME280;64213;46.452;16.994;2023-05-18T07:13:14;100308.34;;;10.34;84.60
75629;BME280;64213;46.452;16.994;2023-05-18T07:16:16;100306.25;;;10.24;85.48
75629;BME280;64213;46.452;16.994;2023-05-18T07:19:18;100315.88;;;10.25;85.99
75629;BME280;64213;46.452;16.994;2023-05-18T07:22:21;100312.91;;;10.16;87.44
75629;BME280;64213;46.452;16.994;2023-05-18T07:25:23;100310.66;;;9.94;86.91
75629;BME280;64213;46.452;16.994;2023-05-18T07:28:25;100307.50;;;9.87;87.21
75629;BME280;64213;46.452;16.994;2023-05-18T07:31:27;100312.34;;;9.95;86.69
75629;BME280;64213;46.452;16.994;2023-05-18T07:34:30;100312.09;;;9.99;86.41
75629;BME280;64213;46.452;16.994;2023-05-18T07:37:32;100316.19;;;10.05;85.47
75629;BME280;64213;46.452;16.994;2023-05-18T07:40:34;100314.97;;;10.11;84.88
75629;BME280;64213;46.452;16.994;2023-05-18T07:43:36;100315.44;;;10.17;84.97
75629;BME280;64213;46.452;16.994;2023-05-18T07:46:38;100323.97;;;10.22;84.66
75629;BME280;64213;46.452;16.994;2023-05-18T07:49:40;100321.09;;;10.27;84.51
75629;BME280;64213;46.452;16.994;2023-05-18T07:52:43;100323.31;;;10.35;84.11
75629;BME280;64213;46.452;16.994;2023-05-18T07:55:45;100324.22;;;10.34;83.93
75629;BME280;64213;46.452;16.994;2023-05-18T07:58:48;100327.63;;;10.36;83.76
75629;BME280;64213;46.452;16.994;2023-05-18T08:01:50;100321.22;;;10.40;83.55
75629;BME280;64213;46.452;16.994;2023-05-18T08:04:52;100330.59;;;10.45;83.49
75629;BME280;64213;46.452;16.994;2023-05-18T08:07:55;100322.94;;;10.41;82.62
75629;BME280;64213;46.452;16.994;2023-05-18T08:10:58;100328.72;;;10.47;82.38
75629;BME280;64213;46.452;16.994;2023-05-18T08:14:00;100327.72;;;10.64;82.09
75629;BME280;64213;46.452;16.994;2023-05-18T08:17:03;100327.47;;;10.69;81.97
75629;BME280;64213;46.452;16.994;2023-05-18T08:20:06;100332.34;;;10.75;81.40
75629;BME280;64213;46.452;16.994;2023-05-18T08:23:09;100333.53;;;10.85;81.78
75629;BME280;64213;46.452;16.994;2023-05-18T08:26:11;100337.84;;;10.72;81.69
75629;BME280;64213;46.452;16.994;2023-05-18T08:29:14;100339.63;;;10.71;81.75
75629;BME280;64213;46.452;16.994;2023-05-18T08:32:17;100338.34;;;10.79;81.74
75629;BME280;64213;46.452;16.994;2023-05-18T08:35:19;100343.44;;;10.82;81.32
75629;BME280;64213;46.452;16.994;2023-05-18T08:38:21;100341.34;;;10.87;80.22
75629;BME280;64213;46.452;16.994;2023-05-18T08:45:28;100355.66;;;10.99;80.64
75629;BME280;64213;46.452;16.994;2023-05-18T08:48:32;100349.97;;;11.05;80.75
75629;BME280;64213;46.452;16.994;2023-05-18T08:51:36;100351.19;;;10.99;80.92
75629;BME280;64213;46.452;16.994;2023-05-18T08:54:39;100350.62;;;10.94;80.17
75629;BME280;64213;46.452;16.994;2023-05-18T08:57:45;100359.84;;;11.17;79.78
75629;BME280;64213;46.452;16.994;2023-05-18T09:00:51;100355.28;;;11.19;79.74
75629;BME280;64213;46.452;16.994;2023-05-18T09:03:56;100351.97;;;11.15;79.56
75629;BME280;64213;46.452;16.994;2023-05-18T09:06:59;100354.81;;;11.12;79.24
75629;BME280;64213;46.452;16.994;2023-05-18T09:10:03;100365.78;;;11.21;78.73
75629;BME280;64213;46.452;16.994;2023-05-18T09:13:06;100371.34;;;11.16;79.04
75629;BME280;64213;46.452;16.994;2023-05-18T09:16:09;100363.78;;;11.24;78.98
75629;BME280;64213;46.452;16.994;2023-05-18T09:19:11;100364.53;;;11.26;79.44
75629;BME280;64213;46.452;16.994;2023-05-18T09:22:13;100364.34;;;11.29;79.27
75629;BME280;64213;46.452;16.994;2023-05-18T09:25:16;100368.78;;;11.29;78.75
75629;BME280;64213;46.452;16.994;2023-05-18T09:28:28;100371.81;;;11.23;78.49
75629;BME280;64213;46.452;16.994;2023-05-18T09:31:31;100370.22;;;11.20;78.12
75629;BME280;64213;46.452;16.994;2023-05-18T09:34:42;100367.59;;;11.20;78.12
75629;BME280;64213;46.452;16.994;2023-05-18T09:37:46;100372.28;;;11.29;78.07
75629;BME280;64213;46.452;16.994;2023-05-18T09:40:49;100368.22;;;11.38;78.22
75629;BME280;64213;46.452;16.994;2023-05-18T09:43:51;100372.87;;;11.34;78.03
75629;BME280;64213;46.452;16.994;2023-05-18T09:46:56;100369.25;;;11.35;77.96
75629;BME280;64213;46.452;16.994;2023-05-18T09:49:58;100372.94;;;11.47;77.74
75629;BME280;64213;46.452;16.994;2023-05-18T09:53:02;100375.19;;;11.68;77.76
75629;BME280;64213;46.452;16.994;2023-05-18T09:56:07;100370.84;;;11.67;77.75
75629;BME280;64213;46.452;16.994;2023-05-18T09:59:14;100381.94;;;11.88;77.38
75629;BME280;64213;46.452;16.994;2023-05-18T10:02:17;100368.50;;;11.62;77.30
75629;BME280;64213;46.452;16.994;2023-05-18T10:05:24;100370.84;;;11.81;76.88
75629;BME280;64213;46.452;16.994;2023-05-18T10:08:36;100374.44;;;11.94;76.44
75629;BME280;64213;46.452;16.994;2023-05-18T10:11:39;100378.06;;;12.06;75.76
75629;BME280;64213;46.452;16.994;2023-05-18T10:14:42;100371.12;;;12.18;75.78
75629;BME280;64213;46.452;16.994;2023-05-18T10:17:49;100378.28;;;12.30;75.30
75629;BME280;64213;46.452;16.994;2023-05-18T10:20:54;100379.69;;;12.36;75.05
75629;BME280;64213;46.452;16.994;2023-05-18T10:24:02;100377.03;;;12.36;74.72
75629;BME280;64213;46.452;16.994;2023-05-18T10:27:07;100374.19;;;12.39;74.42
75629;BME280;64213;46.452;16.994;2023-05-18T10:30:10;100369.81;;;12.38;74.46
75629;BME280;64213;46.452;16.994;2023-05-18T10:33:14;100367.19;;;12.50;73.88
75629;BME280;64213;46.452;16.994;2023-05-18T10:36:30;100368.16;;;12.49;74.14
75629;BME280;64213;46.452;16.994;2023-05-18T10:39:35;100372.72;;;12.60;73.82
75629;BME280;64213;46.452;16.994;2023-05-18T10:42:40;100376.91;;;12.64;73.52
75629;BME280;64213;46.452;16.994;2023-05-18T10:45:46;100373.94;;;12.82;73.71
75629;BME280;64213;46.452;16.994;2023-05-18T10:48:50;100378.53;;;13.05;72.93
75629;BME280;64213;46.452;16.994;2023-05-18T10:51:54;100381.09;;;13.07;72.99
75629;BME280;64213;46.452;16.994;2023-05-18T10:54:57;100378.84;;;13.00;73.29
75629;BME280;64213;46.452;16.994;2023-05-18T10:58:10;100382.47;;;13.12;72.64
75629;BME280;64213;46.452;16.994;2023-05-18T11:01:15;100375.69;;;13.08;72.63
75629;BME280;64213;46.452;16.994;2023-05-18T11:04:25;100375.22;;;13.01;73.06
75629;BME280;64213;46.452;16.994;2023-05-18T11:07:33;100380.31;;;12.79;73.54
75629;BME280;64213;46.452;16.994;2023-05-18T11:10:43;100371.19;;;12.70;73.77
75629;BME280;64213;46.452;16.994;2023-05-18T11:13:48;100382.97;;;12.79;73.35
75629;BME280;64213;46.452;16.994;2023-05-18T11:16:51;100378.84;;;13.13;72.69
75629;BME280;64213;46.452;16.994;2023-05-18T11:23:14;100380.31;;;13.04;73.72
75629;BME280;64213;46.452;16.994;2023-05-18T11:26:16;100382.87;;;13.19;73.40
75629;BME280;64213;46.452;16.994;2023-05-18T11:29:28;100384.78;;;13.04;73.85
75629;BME280;64213;46.452;16.994;2023-05-18T11:32:31;100382.78;;;13.20;73.83
75629;BME280;64213;46.452;16.994;2023-05-18T11:39:03;100389.03;;;12.94;73.82
75629;BME280;64213;46.452;16.994;2023-05-18T11:42:09;100385.94;;;12.87;74.22
75629;BME280;64213;46.452;16.994;2023-05-18T11:45:12;100384.28;;;13.12;73.59
75629;BME280;64213;46.452;16.994;2023-05-18T11:48:14;100381.22;;;13.43;73.39
75629;BME280;64213;46.452;16.994;2023-05-18T11:51:16;100378.09;;;13.49;73.20
75629;BME280;64213;46.452;16.994;2023-05-18T11:54:19;100380.97;;;13.59;72.91
75629;BME280;64213;46.452;16.994;2023-05-18T12:00:36;100377.34;;;13.60;72.12
75629;BME280;64213;46.452;16.994;2023-05-18T12:03:38;100380.72;;;13.62;71.09
75629;BME280;64213;46.452;16.994;2023-05-18T12:06:41;100377.03;;;13.52;72.67
75629;BME280;64213;46.452;16.994;2023-05-18T12:09:43;100371.47;;;13.68;72.20
75629;BME280;64213;46.452;16.994;2023-05-18T12:12:56;100379.56;;;13.66;72.48
75629;BME280;64213;46.452;16.994;2023-05-18T12:15:58;100378.19;;;13.61;72.95
75629;BME280;64213;46.452;16.994;2023-05-18T12:19:00;100385.63;;;13.56;72.95
75629;BME280;64213;46.452;16.994;2023-05-18T12:22:02;100389.25;;;13.55;73.23
75629;BME280;64213;46.452;16.994;2023-05-18T12:25:07;100384.47;;;13.60;72.67
75629;BME280;64213;46.452;16.994;2023-05-18T12:28:09;100381.09;;;13.45;73.17
75629;BME280;64213;46.452;16.994;2023-05-18T12:31:11;100390.97;;;13.43;73.37
75629;BME280;64213;46.452;16.994;2023-05-18T12:34:14;100392.56;;;13.58;73.08
75629;BME280;64213;46.452;16.994;2023-05-18T12:37:16;100387.34;;;13.57;72.62
75629;BME280;64213;46.452;16.994;2023-05-18T12:40:19;100388.97;;;13.59;73.11
75629;BME280;64213;46.452;16.994;2023-05-18T12:43:23;100390.09;;;13.68;73.08
75629;BME280;64213;46.452;16.994;2023-05-18T12:46:27;100388.56;;;13.89;72.21
75629;BME280;64213;46.452;16.994;2023-05-18T12:49:35;100385.94;;;13.77;72.64
75629;BME280;64213;46.452;16.994;2023-05-18T12:52:38;100394.22;;;14.09;71.89
75629;BME280;64213;46.452;16.994;2023-05-18T12:55:40;100389.84;;;13.84;72.16
75629;BME280;64213;46.452;16.994;2023-05-18T12:59:08;100396.63;;;13.88;72.17
75629;BME280;64213;46.452;16.994;2023-05-18T13:02:27;100397.25;;;13.42;72.89
75629;BME280;64213;46.452;16.994;2023-05-18T13:05:29;100395.22;;;13.45;72.65
75629;BME280;64213;46.452;16.994;2023-05-18T13:08:33;100398.84;;;13.57;72.37
75629;BME280;64213;46.452;16.994;2023-05-18T13:11:35;100402.87;;;13.50;72.85
75629;BME280;64213;46.452;16.994;2023-05-18T13:14:37;100395.84;;;13.62;72.52
75629;BME280;64213;46.452;16.994;2023-05-18T13:20:55;100396.69;;;13.49;73.20
75629;BME280;64213;46.452;16.994;2023-05-18T13:23:59;100399.78;;;13.69;72.77
75629;BME280;64213;46.452;16.994;2023-05-18T13:27:01;100400.97;;;14.02;72.00
75629;BME280;64213;46.452;16.994;2023-05-18T13:30:04;100395.31;;;13.69;71.89
75629;BME280;64213;46.452;16.994;2023-05-18T13:33:07;100396.13;;;13.83;71.97
75629;BME280;64213;46.452;16.994;2023-05-18T13:36:10;100401.34;;;13.71;72.82
75629;BME280;64213;46.452;16.994;2023-05-18T13:39:12;100402.16;;;13.35;73.84
75629;BME280;64213;46.452;16.994;2023-05-18T13:42:14;100399.47;;;13.61;73.03
75629;BME280;64213;46.452;16.994;2023-05-18T13:45:16;100401.72;;;13.54;73.37
75629;BME280;64213;46.452;16.994;2023-05-18T13:48:18;100408.62;;;13.44;74.09
75629;BME280;64213;46.452;16.994;2023-05-18T13:51:20;100399.91;;;13.42;74.13
75629;BME280;64213;46.452;16.994;2023-05-18T13:54:22;100398.22;;;13.41;74.15
75629;BME280;64213;46.452;16.994;2023-05-18T13:57:28;100404.16;;;13.44;74.19
75629;BME280;64213;46.452;16.994;2023-05-18T14:00:31;100400.53;;;13.45;74.18
75629;BME280;64213;46.452;16.994;2023-05-18T14:03:37;100390.44;;;13.63;73.82
75629;BME280;64213;46.452;16.994;2023-05-18T14:06:41;100396.47;;;13.65;73.60
75629;BME280;64213;46.452;16.994;2023-05-18T14:09:43;100398.62;;;13.60;73.64
75629;BME280;64213;46.452;16.994;2023-05-18T14:12:45;100395.97;;;13.60;73.34
75629;BME280;64213;46.452;16.994;2023-05-18T14:15:47;100393.16;;;13.75;73.25
75629;BME280;64213;46.452;16.994;2023-05-18T14:18:49;100399.47;;;13.48;73.87
75629;BME280;64213;46.452;16.994;2023-05-18T14:21:51;100391.19;;;13.40;74.07
75629;BME280;64213;46.452;16.994;2023-05-18T14:24:53;100393.97;;;13.25;74.89
75629;BME280;64213;46.452;16.994;2023-05-18T14:27:55;100385.66;;;13.30;74.65
75629;BME280;64213;46.452;16.994;2023-05-18T14:30:58;100393.72;;;13.16;74.79
75629;BME280;64213;46.452;16.994;2023-05-18T14:34:00;100395.00;;;13.23;74.73
75629;BME280;64213;46.452;16.994;2023-05-18T14:37:02;100400.13;;;13.26;75.11
75629;BME280;64213;46.452;16.994;2023-05-18T14:40:05;100392.50;;;13.34;74.64
75629;BME280;64213;46.452;16.994;2023-05-18T14:43:08;100394.94;;;13.37;74.45
75629;BME280;64213;46.452;16.994;2023-05-18T14:46:10;100393.53;;;13.19;75.26
75629;BME280;64213;46.452;16.994;2023-05-18T14:49:12;100389.81;;;13.21;75.18
75629;BME280;64213;46.452;16.994;2023-05-18T14:52:14;100393.94;;;13.13;75.60
75629;BME280;64213;46.452;16.994;2023-05-18T14:55:16;100395.84;;;13.23;75.88
75629;BME280;64213;46.452;16.994;2023-05-18T14:58:18;100391.19;;;13.27;75.98
75629;BME280;64213;46.452;16.994;2023-05-18T15:01:20;100397.59;;;13.24;76.21
75629;BME280;64213;46.452;16.994;2023-05-18T15:04:23;100395.66;;;13.39;75.99
75629;BME280;64213;46.452;16.994;2023-05-18T15:07:26;100399.16;;;13.40;75.84
75629;BME280;64213;46.452;16.994;2023-05-18T15:10:28;100400.25;;;13.24;76.34
75629;BME280;64213;46.452;16.994;2023-05-18T15:13:30;100406.87;;;13.04;75.97
75629;BME280;64213;46.452;16.994;2023-05-18T15:16:32;100404.22;;;12.92;76.73
75629;BME280;64213;46.452;16.994;2023-05-18T15:19:34;100406.34;;;12.87;76.76
75629;BME280;64213;46.452;16.994;2023-05-18T15:22:37;100401.53;;;12.79;77.05
75629;BME280;64213;46.452;16.994;2023-05-18T15:25:41;100414.72;;;12.80;77.10
75629;BME280;64213;46.452;16.994;2023-05-18T15:28:43;100406.50;;;12.58;77.97
75629;BME280;64213;46.452;16.994;2023-05-18T15:31:46;100406.72;;;12.68;78.10
75629;BME280;64213;46.452;16.994;2023-05-18T15:34:51;100403.44;;;12.64;77.84
75629;BME280;64213;46.452;16.994;2023-05-18T15:37:54;100413.44;;;12.73;78.38
75629;BME280;64213;46.452;16.994;2023-05-18T15:40:56;100405.75;;;12.56;78.51
75629;BME280;64213;46.452;16.994;2023-05-18T15:43:59;100413.91;;;12.53;79.08
75629;BME280;64213;46.452;16.994;2023-05-18T15:47:03;100403.16;;;12.42;79.26
75629;BME280;64213;46.452;16.994;2023-05-18T15:50:05;100417.75;;;12.34;79.63
75629;BME280;64213;46.452;16.994;2023-05-18T15:53:07;100413.41;;;12.33;79.96
75629;BME280;64213;46.452;16.994;2023-05-18T15:56:10;100417.03;;;12.32;80.00
75629;BME280;64213;46.452;16.994;2023-05-18T15:59:12;100422.53;;;12.29;80.37
75629;BME280;64213;46.452;16.994;2023-05-18T16:02:14;100415.41;;;12.30;80.72
75629;BME280;64213;46.452;16.994;2023-05-18T16:05:16;100416.06;;;12.33;80.53
75629;BME280;64213;46.452;16.994;2023-05-18T16:08:18;100416.06;;;12.33;80.45
75629;BME280;64213;46.452;16.994;2023-05-18T16:11:21;100409.59;;;12.38;80.62
75629;BME280;64213;46.452;16.994;2023-05-18T16:14:23;100422.22;;;12.34;80.57
75629;BME280;64213;46.452;16.994;2023-05-18T16:17:25;100416.91;;;12.34;80.79
75629;BME280;64213;46.452;16.994;2023-05-18T16:20:27;100411.22;;;12.40;80.78
75629;BME280;64213;46.452;16.994;2023-05-18T16:23:29;100409.50;;;12.39;81.04